Time;durP1;ratioP1;P1;durP2;ratioP2;P2;SDS_P1;SDS_P2;PMS_P1;PMS_P2;Temp;Humidity;BMP_temperature;BMP_pressure;BME280_temperature;BME280_humidity;BME280_pressure;Samples;Min_cycle;Max_cycle;Signal;HPM_P1;HPM_P2
2023/10/03 00:02:27;;;;;;;6.45;3.63;;;23.60;66.10;;;;;;7678341;22;80601;-52
2023/10/03 00:05:34;;;;;;;5.13;3.40;;;23.60;66.00;;;;;;7679741;22;80710;-48
2023/10/03 00:08:35;;;;;;;6.22;4.07;;;23.60;66.00;;;;;;7678865;22;81164;-48
2023/10/03 00:11:35;;;;;;;5.80;3.80;;;23.60;66.00;;;;;;7679090;22;80470;-56
2023/10/03 00:14:36;;;;;;;7.18;4.05;;;23.70;66.00;;;;;;7678706;22;80464;-57
2023/10/03 00:17:36;;;;;;;5.60;3.88;;;23.60;66.00;;;;;;7679201;22;80773;-57
2023/10/03 00:20:37;;;;;;;5.85;3.58;;;23.60;66.70;;;;;;7655722;22;81747;-57
2023/10/03 00:23:37;;;;;;;7.07;4.65;;;23.60;66.10;;;;;;7678976;22;80757;-57
2023/10/03 00:26:39;;;;;;;5.13;3.63;;;23.60;66.00;;;;;;7679373;22;80404;-57
2023/10/03 00:29:40;;;;;;;6.90;4.00;;;23.60;66.00;;;;;;7679975;22;80407;-51
2023/10/03 00:32:41;;;;;;;5.82;3.70;;;23.60;66.00;;;;;;7678839;22;80435;-57
2023/10/03 00:35:42;;;;;;;6.10;3.60;;;23.60;66.00;;;;;;7677515;22;81477;-52
2023/10/03 00:38:44;;;;;;;8.82;4.43;;;23.60;66.00;;;;;;7676343;22;83353;-53
2023/10/03 00:41:45;;;;;;;5.70;3.95;;;23.60;66.00;;;;;;7679807;22;80833;-57
2023/10/03 00:44:45;;;;;;;9.90;4.13;;;23.60;65.90;;;;;;7678898;22;80774;-57
2023/10/03 00:47:47;;;;;;;7.40;3.88;;;23.60;65.90;;;;;;7677960;22;80244;-56
2023/10/03 00:50:48;;;;;;;6.68;3.78;;;23.60;65.90;;;;;;7678730;22;82778;-52
2023/10/03 00:53:53;;;;;;;5.05;3.95;;;23.60;65.80;;;;;;7676243;22;80362;-48
2023/10/03 00:56:53;;;;;;;6.80;4.00;;;23.60;65.70;;;;;;7678151;22;80805;-48
2023/10/03 00:59:54;;;;;;;8.40;3.83;;;23.60;65.80;;;;;;7678093;22;80486;-50
2023/10/03 01:02:54;;;;;;;6.95;4.15;;;23.60;65.70;;;;;;7679025;22;81083;-48
2023/10/03 01:05:58;;;;;;;6.10;3.55;;;23.60;65.90;;;;;;7677768;22;80876;-52
2023/10/03 01:09:00;;;;;;;6.10;3.80;;;23.60;65.70;;;;;;7676085;22;81916;-52
2023/10/03 01:12:00;;;;;;;9.63;4.93;;;23.60;65.80;;;;;;7679334;22;80870;-52
2023/10/03 01:15:05;;;;;;;6.28;4.00;;;23.60;65.70;;;;;;7678236;22;80361;-47
2023/10/03 01:18:13;;;;;;;8.00;4.17;;;23.60;65.60;;;;;;7677682;22;80342;-48
2023/10/03 01:21:14;;;;;;;7.95;3.95;;;23.60;65.60;;;;;;7675171;22;82910;-48
2023/10/03 01:24:20;;;;;;;6.38;3.72;;;23.60;65.60;;;;;;7672540;22;82152;-57
2023/10/03 01:27:21;;;;;;;6.15;4.10;;;23.60;65.50;;;;;;7647635;22;82823;-52
2023/10/03 01:30:22;;;;;;;7.57;3.63;;;23.60;65.60;;;;;;7673102;22;80316;-51
2023/10/03 01:33:30;;;;;;;6.00;3.80;;;23.60;65.60;;;;;;7672766;22;81176;-48
2023/10/03 01:36:31;;;;;;;5.22;3.67;;;23.60;65.90;;;;;;7676099;22;80902;-53
2023/10/03 01:39:31;;;;;;;5.60;3.75;;;23.60;65.50;;;;;;7678383;22;80727;-49
2023/10/03 01:42:32;;;;;;;5.70;3.58;;;23.60;65.50;;;;;;7673294;22;80772;-50
2023/10/03 01:45:33;;;;;;;6.72;4.30;;;23.60;65.50;;;;;;7677150;22;80412;-51
2023/10/03 01:48:34;;;;;;;7.47;3.75;;;23.60;65.40;;;;;;7677913;22;81703;-51
2023/10/03 01:51:35;;;;;;;6.13;3.85;;;23.60;65.50;;;;;;7678132;22;86397;-50
2023/10/03 01:54:36;;;;;;;4.78;3.42;;;23.60;65.50;;;;;;7676751;22;81907;-49
2023/10/03 01:57:37;;;;;;;6.82;3.88;;;23.60;65.60;;;;;;7675372;22;83798;-49
2023/10/03 02:00:40;;;;;;;7.13;4.35;;;23.60;65.50;;;;;;7675299;22;81271;-57
2023/10/03 02:03:41;;;;;;;6.15;3.60;;;23.60;65.50;;;;;;7677458;22;80426;-57
2023/10/03 02:06:42;;;;;;;6.40;4.18;;;23.60;65.50;;;;;;7678108;22;82437;-57
2023/10/03 02:09:43;;;;;;;6.07;4.10;;;23.60;65.50;;;;;;7678571;22;79865;-57
2023/10/03 02:12:50;;;;;;;5.50;4.07;;;23.60;65.50;;;;;;7676873;22;81569;-57
2023/10/03 02:15:51;;;;;;;5.75;3.88;;;23.60;65.50;;;;;;7677272;22;80323;-58
2023/10/03 02:18:52;;;;;;;7.32;4.07;;;23.60;65.60;;;;;;7677336;22;80263;-57
2023/10/03 02:21:59;;;;;;;6.20;3.85;;;23.60;65.50;;;;;;7679769;22;80350;-57
2023/10/03 02:24:59;;;;;;;6.88;4.28;;;23.60;65.30;;;;;;7680262;22;80523;-57
2023/10/03 02:28:01;;;;;;;9.27;4.55;;;23.60;65.30;;;;;;7680510;22;81071;-57
2023/10/03 02:31:07;;;;;;;10.32;4.47;;;23.60;65.30;;;;;;7680750;22;81038;-56
2023/10/03 02:34:07;;;;;;;6.28;4.00;;;23.50;65.20;;;;;;7653373;22;83730;-56
2023/10/03 02:37:08;;;;;;;6.53;4.13;;;23.50;65.30;;;;;;7653270;22;81872;-56
2023/10/03 02:40:08;;;;;;;8.05;3.70;;;23.50;65.20;;;;;;7679808;22;81006;-57
2023/10/03 02:43:13;;;;;;;5.78;3.60;;;23.50;65.30;;;;;;7652287;22;83327;-54
2023/10/03 02:46:14;;;;;;;7.68;4.38;;;23.50;65.30;;;;;;7653136;22;81868;-55
2023/10/03 02:49:26;;;;;;;5.90;4.05;;;23.50;65.20;;;;;;7652505;22;82132;-55
2023/10/03 02:52:27;;;;;;;8.40;4.25;;;23.50;65.20;;;;;;7678859;22;80688;-55
2023/10/03 02:55:27;;;;;;;8.15;4.03;;;23.50;65.10;;;;;;7651941;22;83186;-47
2023/10/03 02:58:28;;;;;;;6.70;4.20;;;23.50;65.10;;;;;;7680231;22;80443;-50
2023/10/03 03:01:31;;;;;;;5.75;3.90;;;23.50;65.10;;;;;;7643910;22;82332;-49
2023/10/03 03:04:33;;;;;;;8.18;4.60;;;23.50;65.20;;;;;;7677222;22;80482;-51
2023/10/03 03:07:35;;;;;;;7.72;4.43;;;23.50;65.40;;;;;;7674250;22;80660;-50
2023/10/03 03:10:38;;;;;;;9.45;3.90;;;23.50;65.00;;;;;;7651634;22;82494;-50
2023/10/03 03:13:39;;;;;;;8.07;4.35;;;23.50;64.90;;;;;;7652059;22;82912;-50
2023/10/03 03:16:40;;;;;;;8.13;4.72;;;23.50;64.70;;;;;;7679443;22;82562;-51
2023/10/03 03:19:41;;;;;;;6.90;4.18;;;23.50;64.70;;;;;;7675918;22;80975;-59
2023/10/03 03:22:41;;;;;;;10.00;4.50;;;23.50;64.70;;;;;;7678139;22;80665;-55
2023/10/03 03:25:42;;;;;;;6.45;4.28;;;23.50;64.90;;;;;;7678828;22;80325;-54
2023/10/03 03:28:44;;;;;;;8.85;4.50;;;23.50;65.00;;;;;;7678080;22;80201;-54
2023/10/03 03:31:45;;;;;;;8.10;4.22;;;23.50;65.50;;;;;;7679076;22;80754;-49
2023/10/03 03:34:45;;;;;;;9.35;5.32;;;23.50;65.20;;;;;;7679481;22;80216;-48
2023/10/03 03:37:47;;;;;;;9.60;4.50;;;23.50;64.90;;;;;;7679185;22;80466;-55
2023/10/03 03:40:57;;;;;;;10.98;4.15;;;23.50;64.80;;;;;;7677115;22;80723;-54
2023/10/03 03:43:59;;;;;;;6.93;3.88;;;23.60;64.90;;;;;;7677415;22;80836;-54
2023/10/03 03:47:00;;;;;;;8.45;4.40;;;23.50;64.80;;;;;;7677900;22;80332;-56
2023/10/03 03:50:10;;;;;;;6.95;4.80;;;23.50;64.80;;;;;;7677723;22;80756;-55
2023/10/03 03:53:10;;;;;;;9.85;4.90;;;23.50;64.80;;;;;;7647738;22;87662;-57
2023/10/03 03:56:12;;;;;;;9.88;4.32;;;23.50;65.00;;;;;;7650735;22;83611;-55
2023/10/03 03:59:13;;;;;;;9.63;4.78;;;23.50;64.90;;;;;;7676625;22;80404;-58
2023/10/03 04:02:14;;;;;;;13.48;4.35;;;23.50;65.40;;;;;;7678011;22;80251;-59
2023/10/03 04:05:17;;;;;;;7.88;4.10;;;23.50;65.70;;;;;;7679089;22;81440;-62
2023/10/03 04:08:18;;;;;;;11.52;4.85;;;23.50;65.50;;;;;;7679493;22;80468;-61
2023/10/03 04:11:18;;;;;;;12.18;4.15;;;23.60;65.70;;;;;;7679937;22;81375;-62
2023/10/03 04:14:19;;;;;;;19.52;5.00;;;23.60;65.80;;;;;;7676548;22;80441;-57
2023/10/03 04:17:20;;;;;;;13.45;4.95;;;23.60;65.60;;;;;;7676797;22;81141;-56
2023/10/03 04:20:30;;;;;;;12.50;4.72;;;23.60;65.70;;;;;;7650874;22;80360;-56
2023/10/03 04:23:32;;;;;;;11.55;4.80;;;23.50;65.30;;;;;;7676525;22;80738;-57
2023/10/03 04:26:34;;;;;;;18.85;5.72;;;23.40;64.80;;;;;;7677250;22;81597;-57
2023/10/03 04:29:34;;;;;;;12.38;5.55;;;23.40;64.50;;;;;;7677467;22;80328;-57
2023/10/03 04:32:35;;;;;;;11.63;4.82;;;23.30;64.30;;;;;;7679139;22;80474;-51
2023/10/03 04:35:35;;;;;;;10.55;4.95;;;23.30;64.30;;;;;;7676041;22;80712;-52
2023/10/03 04:38:36;;;;;;;13.85;5.70;;;23.20;64.00;;;;;;7667186;22;81279;-50
2023/10/03 04:41:42;;;;;;;9.93;5.43;;;23.20;63.80;;;;;;7662273;22;80478;-51
2023/10/03 04:44:43;;;;;;;13.05;5.82;;;23.20;63.50;;;;;;7667925;22;80393;-52
2023/10/03 04:47:44;;;;;;;11.80;5.03;;;23.20;63.30;;;;;;7673550;22;80474;-56
2023/10/03 04:50:45;;;;;;;14.25;5.40;;;23.20;63.20;;;;;;7673123;22;80676;-65
2023/10/03 04:53:45;;;;;;;8.88;5.50;;;23.10;63.20;;;;;;7678452;22;80290;-64
2023/10/03 04:56:48;;;;;;;9.70;5.10;;;23.10;63.10;;;;;;7677828;22;80369;-64
2023/10/03 04:59:48;;;;;;;9.90;5.22;;;23.10;63.10;;;;;;7678422;22;81330;-63
2023/10/03 05:02:49;;;;;;;9.82;5.38;;;23.10;63.10;;;;;;7678447;22;80349;-63
2023/10/03 05:05:49;;;;;;;11.98;5.97;;;23.10;63.00;;;;;;7677683;22;80747;-48
2023/10/03 05:08:50;;;;;;;10.00;5.18;;;23.10;63.00;;;;;;7677944;22;80255;-56
2023/10/03 05:11:50;;;;;;;9.98;5.18;;;23.00;62.90;;;;;;7678877;22;80903;-56
2023/10/03 05:14:51;;;;;;;10.60;5.40;;;23.00;62.90;;;;;;7678015;22;80855;-56
2023/10/03 05:17:52;;;;;;;12.00;5.80;;;23.00;62.80;;;;;;7678563;22;81434;-56
2023/10/03 05:20:53;;;;;;;14.18;4.90;;;23.00;62.80;;;;;;7677666;22;81039;-56
2023/10/03 05:23:53;;;;;;;12.57;5.63;;;23.00;62.80;;;;;;7678089;22;80204;-50
2023/10/03 05:26:55;;;;;;;9.05;5.03;;;23.00;62.80;;;;;;7677561;22;81022;-50
2023/10/03 05:29:56;;;;;;;10.48;5.10;;;23.00;62.80;;;;;;7677409;22;80207;-49
2023/10/03 05:32:56;;;;;;;11.20;5.22;;;23.00;62.80;;;;;;7678453;22;80417;-47
2023/10/03 05:35:57;;;;;;;8.57;5.35;;;23.00;62.80;;;;;;7677749;22;80763;-52
2023/10/03 05:38:58;;;;;;;13.70;5.40;;;23.00;62.70;;;;;;7677011;22;81690;-54
2023/10/03 05:42:00;;;;;;;12.30;5.78;;;23.00;62.70;;;;;;7677828;22;80888;-51
2023/10/03 05:45:00;;;;;;;16.42;5.85;;;23.00;62.80;;;;;;7677704;22;80244;-57
2023/10/03 05:48:04;;;;;;;10.00;5.80;;;23.00;62.80;;;;;;7677558;22;80385;-56
2023/10/03 05:51:05;;;;;;;10.82;5.30;;;23.00;62.90;;;;;;7677788;22;80596;-57
2023/10/03 05:54:06;;;;;;;12.15;6.50;;;23.00;63.00;;;;;;7676764;22;80162;-56
2023/10/03 05:57:06;;;;;;;13.30;6.40;;;23.00;63.10;;;;;;7679492;22;82345;-56
2023/10/03 06:00:10;;;;;;;16.80;7.28;;;23.00;63.10;;;;;;7678984;22;80673;-56
2023/10/03 06:03:10;;;;;;;11.60;6.28;;;23.00;63.30;;;;;;7679313;22;80400;-55
2023/10/03 06:06:11;;;;;;;19.58;6.90;;;23.00;63.30;;;;;;7679173;22;80385;-56
2023/10/03 06:09:11;;;;;;;14.38;7.90;;;22.90;63.40;;;;;;7678591;22;80960;-55
2023/10/03 06:12:12;;;;;;;15.13;7.18;;;23.00;63.60;;;;;;7678569;22;80393;-54
2023/10/03 06:15:12;;;;;;;17.98;7.68;;;23.00;63.60;;;;;;7679117;22;80718;-56
2023/10/03 06:18:13;;;;;;;19.05;7.10;;;23.00;63.70;;;;;;7679232;22;81285;-56
2023/10/03 06:21:13;;;;;;;15.57;7.15;;;23.00;63.60;;;;;;7678899;22;80530;-49
2023/10/03 06:24:14;;;;;;;14.65;7.55;;;23.00;63.60;;;;;;7678049;22;80262;-51
2023/10/03 06:27:15;;;;;;;13.18;7.13;;;23.00;63.70;;;;;;7678713;22;87506;-52
2023/10/03 06:30:15;;;;;;;11.95;6.20;;;23.00;63.90;;;;;;7678407;22;80025;-51
2023/10/03 06:33:16;;;;;;;12.65;6.60;;;23.10;63.70;;;;;;7677782;22;80508;-50
2023/10/03 06:36:16;;;;;;;11.93;6.45;;;23.10;63.70;;;;;;7678575;22;82153;-53
2023/10/03 06:39:17;;;;;;;10.10;6.40;;;23.10;63.80;;;;;;7678940;22;80356;-49
2023/10/03 06:42:18;;;;;;;11.02;6.07;;;23.20;63.80;;;;;;7678847;22;80641;-51
2023/10/03 06:45:21;;;;;;;10.90;6.20;;;23.20;63.80;;;;;;7678183;22;80616;-52
2023/10/03 06:48:23;;;;;;;12.35;6.03;;;23.20;63.80;;;;;;7678626;22;80438;-53
2023/10/03 06:51:24;;;;;;;12.25;6.53;;;23.30;64.00;;;;;;7678335;22;80267;-52
2023/10/03 06:54:24;;;;;;;12.20;6.22;;;23.30;63.80;;;;;;7678987;22;80338;-66
2023/10/03 06:57:25;;;;;;;14.23;5.85;;;23.30;63.80;;;;;;7679059;22;80408;-57
2023/10/03 07:00:26;;;;;;;18.95;7.20;;;23.40;64.10;;;;;;7679209;22;81498;-59
2023/10/03 07:03:26;;;;;;;12.23;6.82;;;23.40;63.90;;;;;;7679593;22;80832;-57
2023/10/03 07:06:28;;;;;;;12.27;5.40;;;23.40;63.70;;;;;;7652638;22;80658;-57
2023/10/03 07:09:28;;;;;;;14.32;6.38;;;23.40;63.90;;;;;;7679400;22;80591;-57
2023/10/03 07:12:29;;;;;;;9.88;5.95;;;23.40;63.80;;;;;;7651808;22;80940;-52
2023/10/03 07:15:30;;;;;;;15.90;6.68;;;23.40;64.00;;;;;;7677374;22;80464;-58
2023/10/03 07:18:31;;;;;;;12.85;6.05;;;23.50;63.80;;;;;;7680721;22;80642;-59
2023/10/03 07:21:34;;;;;;;14.38;6.90;;;23.50;63.70;;;;;;7679135;22;80831;-59
2023/10/03 07:24:34;;;;;;;12.18;6.53;;;23.50;63.70;;;;;;7653141;22;81036;-60
2023/10/03 07:27:35;;;;;;;13.48;7.05;;;23.50;63.80;;;;;;7653693;22;80509;-58
2023/10/03 07:30:36;;;;;;;12.50;6.00;;;23.60;63.90;;;;;;7680451;22;80731;-57
2023/10/03 07:33:36;;;;;;;10.10;6.45;;;23.60;64.60;;;;;;7680207;22;81239;-50
2023/10/03 07:36:38;;;;;;;9.57;6.20;;;23.60;64.30;;;;;;7652916;22;82596;-52
2023/10/03 07:39:39;;;;;;;15.10;6.80;;;23.70;64.80;;;;;;7679095;22;81143;-49
2023/10/03 07:42:40;;;;;;;11.23;6.45;;;23.70;65.00;;;;;;7679514;22;80532;-53
2023/10/03 07:45:40;;;;;;;14.40;6.28;;;23.80;65.40;;;;;;7679245;22;81233;-52
2023/10/03 07:48:42;;;;;;;11.68;6.05;;;23.80;65.50;;;;;;7678696;22;80500;-52
2023/10/03 07:51:43;;;;;;;10.85;5.65;;;23.80;65.80;;;;;;7652374;22;81482;-65
2023/10/03 07:54:46;;;;;;;9.23;5.68;;;23.80;65.70;;;;;;7679561;22;80363;-65
2023/10/03 07:57:46;;;;;;;11.98;6.43;;;23.90;65.40;;;;;;7679557;22;80985;-65
2023/10/03 08:00:47;;;;;;;12.25;6.25;;;23.80;65.50;;;;;;7652013;22;81791;-65
2023/10/03 08:03:47;;;;;;;15.32;5.97;;;23.90;65.20;;;;;;7679218;22;80375;-65
2023/10/03 08:06:48;;;;;;;10.10;5.90;;;23.90;64.90;;;;;;7678786;22;80134;-65
2023/10/03 08:09:48;;;;;;;8.73;5.28;;;23.90;64.90;;;;;;7678851;22;80853;-65
2023/10/03 08:12:52;;;;;;;11.52;6.55;;;23.90;64.80;;;;;;7679710;22;80487;-67
2023/10/03 08:15:53;;;;;;;9.43;5.78;;;24.00;64.70;;;;;;7678685;22;80417;-68
2023/10/03 08:19:01;;;;;;;9.07;5.72;;;24.00;64.60;;;;;;7677981;22;80923;-66
2023/10/03 08:22:02;;;;;;;12.43;6.03;;;24.00;64.60;;;;;;7679297;22;81355;-66
2023/10/03 08:25:05;;;;;;;9.35;5.75;;;24.10;65.00;;;;;;7678436;22;80895;-65
2023/10/03 08:28:09;;;;;;;9.32;5.78;;;24.10;64.80;;;;;;7652998;22;80679;-66
2023/10/03 08:31:10;;;;;;;10.40;4.85;;;24.10;64.80;;;;;;7678985;22;80215;-66
2023/10/03 08:34:11;;;;;;;10.43;5.32;;;24.20;64.50;;;;;;7679217;22;80143;-64
2023/10/03 08:37:21;;;;;;;8.02;5.00;;;24.20;64.70;;;;;;7678813;22;80208;-64
2023/10/03 08:40:22;;;;;;;7.75;4.47;;;24.30;64.80;;;;;;7679264;22;80978;-65
2023/10/03 08:43:25;;;;;;;10.85;5.72;;;24.30;64.50;;;;;;7678235;22;80759;-66
2023/10/03 08:46:26;;;;;;;15.55;5.30;;;24.30;64.90;;;;;;7678716;22;80982;-57
2023/10/03 08:49:26;;;;;;;7.85;5.13;;;24.30;64.00;;;;;;7680039;22;80829;-56
2023/10/03 08:52:39;;;;;;;10.55;5.32;;;24.40;64.60;;;;;;7678757;22;80989;-58
2023/10/03 08:55:39;;;;;;;8.95;5.05;;;24.40;64.60;;;;;;7678341;22;82504;-57
2023/10/03 08:58:48;;;;;;;7.28;4.57;;;24.50;64.20;;;;;;7678858;22;80073;-57
2023/10/03 09:01:49;;;;;;;6.90;4.25;;;24.50;64.30;;;;;;7677910;22;80430;-58
2023/10/03 09:04:50;;;;;;;7.65;4.45;;;24.60;64.40;;;;;;7678179;22;80753;-50
2023/10/03 09:07:50;;;;;;;6.13;4.05;;;24.60;64.50;;;;;;7679418;22;80024;-57
2023/10/03 09:10:51;;;;;;;6.35;4.22;;;24.60;64.40;;;;;;7678119;22;80811;-58
2023/10/03 09:13:52;;;;;;;6.90;4.18;;;24.60;63.90;;;;;;7677951;22;81784;-58
2023/10/03 09:16:54;;;;;;;11.90;5.05;;;24.70;64.90;;;;;;7679166;22;80443;-57
2023/10/03 09:20:00;;;;;;;6.70;4.60;;;24.70;64.90;;;;;;7678782;22;80318;-58
2023/10/03 09:23:00;;;;;;;7.43;4.65;;;24.70;64.50;;;;;;7678966;22;80672;-67
2023/10/03 09:26:01;;;;;;;7.15;4.50;;;24.80;64.90;;;;;;7678527;22;80333;-65
2023/10/03 09:29:07;;;;;;;6.88;4.00;;;24.80;65.10;;;;;;7678407;22;80388;-68
2023/10/03 09:32:16;;;;;;;9.55;4.88;;;24.80;64.90;;;;;;7679578;22;80475;-68
2023/10/03 09:35:17;;;;;;;8.48;4.35;;;24.90;65.50;;;;;;7679170;22;85432;-68
2023/10/03 09:38:21;;;;;;;8.60;4.55;;;24.90;64.50;;;;;;7680178;22;80517;-68
2023/10/03 09:41:24;;;;;;;5.85;3.80;;;24.90;64.80;;;;;;7680119;22;80315;-67
2023/10/03 09:44:31;;;;;;;11.15;4.10;;;24.90;64.70;;;;;;7679498;22;80078;-58
2023/10/03 09:47:31;;;;;;;6.25;4.18;;;25.00;65.10;;;;;;7680006;22;80371;-56
2023/10/03 09:50:32;;;;;;;6.50;4.10;;;25.00;65.00;;;;;;7679802;22;80815;-58
2023/10/03 09:53:32;;;;;;;5.47;3.97;;;25.10;65.20;;;;;;7679613;22;80213;-57
2023/10/03 09:56:36;;;;;;;8.20;4.63;;;25.10;65.30;;;;;;7679496;22;80710;-59
2023/10/03 09:59:37;;;;;;;9.18;4.55;;;25.10;65.00;;;;;;7679535;22;80380;-57
2023/10/03 10:02:37;;;;;;;8.52;4.55;;;25.10;66.00;;;;;;7678769;22;80823;-61
2023/10/03 10:05:39;;;;;;;8.57;4.30;;;25.20;65.50;;;;;;7679559;22;80760;-63
2023/10/03 10:08:41;;;;;;;12.95;3.90;;;25.20;65.60;;;;;;7679807;22;80969;-62
2023/10/03 10:11:42;;;;;;;6.80;4.45;;;25.30;65.80;;;;;;7679008;22;81133;-61
2023/10/03 10:14:42;;;;;;;22.20;4.55;;;25.30;65.00;;;;;;7679328;22;80145;-61
2023/10/03 10:17:46;;;;;;;7.20;4.05;;;25.30;65.00;;;;;;7678887;22;80697;-61
2023/10/03 10:20:49;;;;;;;7.05;3.92;;;25.40;64.90;;;;;;7678351;22;80351;-61
2023/10/03 10:23:50;;;;;;;7.72;4.22;;;25.40;65.30;;;;;;7678969;22;80530;-61
2023/10/03 10:26:52;;;;;;;6.97;4.40;;;25.50;65.40;;;;;;7679398;22;80054;-61
2023/10/03 10:29:52;;;;;;;7.18;3.83;;;25.50;65.00;;;;;;7678838;22;80315;-61
2023/10/03 10:32:53;;;;;;;7.05;4.25;;;25.50;64.60;;;;;;7679119;22;81974;-60
2023/10/03 10:35:59;;;;;;;5.88;3.63;;;25.50;65.40;;;;;;7679095;22;81524;-60
2023/10/03 10:39:02;;;;;;;9.35;3.75;;;25.50;64.30;;;;;;7679792;22;80860;-57
2023/10/03 10:42:03;;;;;;;11.38;4.20;;;25.60;64.90;;;;;;7678814;22;81124;-57
2023/10/03 10:45:25;;;;;;;10.57;4.30;;;25.60;65.80;;;;;;7678643;22;81335;-57
2023/10/03 10:48:24;;;;;;;8.77;4.30;;;25.60;65.10;;;;;;7678062;22;81207;-58
2023/10/03 10:51:25;;;;;;;9.25;3.97;;;25.60;65.20;;;;;;7679698;22;81905;-56
2023/10/03 10:54:25;;;;;;;7.07;3.95;;;25.70;65.20;;;;;;7680107;22;80345;-57
2023/10/03 10:57:26;;;;;;;7.88;4.15;;;25.70;65.50;;;;;;7680307;22;80318;-58
2023/10/03 11:00:26;;;;;;;6.65;3.83;;;25.70;65.10;;;;;;7680875;22;80923;-58
2023/10/03 11:03:27;;;;;;;7.55;4.28;;;25.70;65.60;;;;;;7680209;22;80295;-57
2023/10/03 11:06:27;;;;;;;6.25;3.90;;;25.70;65.10;;;;;;7679221;22;80733;-57
2023/10/03 11:09:29;;;;;;;6.13;3.78;;;25.70;64.70;;;;;;7680299;22;80754;-56
2023/10/03 11:12:30;;;;;;;7.75;4.43;;;25.70;65.80;;;;;;7680578;22;80352;-58
2023/10/03 11:15:30;;;;;;;13.82;4.40;;;25.70;64.90;;;;;;7679386;22;80721;-63
2023/10/03 11:18:31;;;;;;;8.88;4.43;;;25.70;64.80;;;;;;7679788;22;80814;-63
2023/10/03 11:21:33;;;;;;;6.00;3.95;;;25.70;65.20;;;;;;7679667;22;80345;-63
2023/10/03 11:24:34;;;;;;;7.47;4.53;;;25.70;65.10;;;;;;7679134;22;81023;-64
2023/10/03 11:27:34;;;;;;;7.10;4.25;;;25.80;65.70;;;;;;7679250;22;80466;-64
2023/10/03 11:30:35;;;;;;;6.40;3.83;;;25.80;65.60;;;;;;7679230;22;81487;-63
2023/10/03 11:33:36;;;;;;;7.10;3.95;;;25.80;65.50;;;;;;7652351;22;84500;-60
2023/10/03 11:36:36;;;;;;;6.55;4.00;;;25.80;65.40;;;;;;7678864;22;80299;-60
2023/10/03 11:39:37;;;;;;;7.13;3.88;;;25.80;65.80;;;;;;7678681;22;80898;-62
2023/10/03 11:42:37;;;;;;;6.45;4.13;;;25.80;65.60;;;;;;7679588;22;80536;-62
2023/10/03 11:45:39;;;;;;;9.25;4.78;;;25.90;65.50;;;;;;7678443;22;80319;-62
2023/10/03 11:48:39;;;;;;;7.97;4.55;;;25.90;65.60;;;;;;7677986;22;80976;-60
2023/10/03 11:51:42;;;;;;;8.00;4.63;;;25.90;66.00;;;;;;7678535;22;80089;-62
2023/10/03 11:54:45;;;;;;;7.40;4.13;;;25.90;66.10;;;;;;7679234;22;80256;-66
2023/10/03 11:57:45;;;;;;;7.72;4.15;;;25.90;66.10;;;;;;7679096;22;80356;-67
2023/10/03 12:00:46;;;;;;;7.68;3.85;;;25.90;65.80;;;;;;7680472;22;80393;-68
2023/10/03 12:03:46;;;;;;;9.27;4.25;;;25.90;65.40;;;;;;7679871;22;80750;-69
2023/10/03 12:06:47;;;;;;;7.45;4.43;;;25.90;65.30;;;;;;7679911;22;80624;-66
2023/10/03 12:09:47;;;;;;;6.35;4.10;;;25.90;65.10;;;;;;7679672;22;80711;-66
2023/10/03 12:12:48;;;;;;;7.05;4.18;;;26.00;65.50;;;;;;7679277;22;80451;-61
2023/10/03 12:15:50;;;;;;;7.25;4.07;;;26.00;65.90;;;;;;7678840;22;80279;-60
2023/10/03 12:18:50;;;;;;;9.38;4.22;;;26.00;66.20;;;;;;7677700;22;80300;-63
2023/10/03 12:21:51;;;;;;;7.47;4.68;;;26.00;66.10;;;;;;7678345;22;80859;-61
2023/10/03 12:24:51;;;;;;;9.48;4.93;;;26.00;65.80;;;;;;7678453;22;80532;-62
2023/10/03 12:27:52;;;;;;;8.25;4.50;;;26.10;65.50;;;;;;7679271;22;80423;-61
2023/10/03 12:30:53;;;;;;;9.50;4.57;;;26.10;66.00;;;;;;7677432;22;80798;-62
2023/10/03 12:33:55;;;;;;;8.50;4.43;;;26.10;66.30;;;;;;7678793;22;80224;-61
2023/10/03 12:36:55;;;;;;;7.63;4.47;;;26.10;65.70;;;;;;7678327;22;80282;-61
2023/10/03 12:40:01;;;;;;;6.68;4.18;;;26.20;65.50;;;;;;7678010;22;80627;-61
2023/10/03 12:43:02;;;;;;;7.40;4.50;;;26.20;65.00;;;;;;7678873;22;80948;-61
2023/10/03 12:46:03;;;;;;;7.43;4.03;;;26.20;64.70;;;;;;7678552;22;80392;-62
2023/10/03 12:49:06;;;;;;;11.60;5.30;;;26.20;65.60;;;;;;7651126;22;83532;-63
2023/10/03 12:52:07;;;;;;;10.15;4.70;;;26.20;65.30;;;;;;7678273;22;81520;-65
2023/10/03 12:55:08;;;;;;;10.13;5.13;;;26.20;65.30;;;;;;7678083;22;81227;-62
2023/10/03 12:58:09;;;;;;;8.30;4.55;;;26.20;65.20;;;;;;7678268;22;80743;-64
2023/10/03 13:01:09;;;;;;;9.75;4.43;;;26.20;65.00;;;;;;7677623;22;80032;-63
2023/10/03 13:04:10;;;;;;;7.80;4.82;;;26.20;64.80;;;;;;7677805;22;80829;-63
2023/10/03 13:07:12;;;;;;;13.02;5.38;;;26.20;64.20;;;;;;7679158;22;80855;-64
2023/10/03 13:10:12;;;;;;;6.53;4.22;;;26.20;65.00;;;;;;7679912;22;80360;-65
2023/10/03 13:13:13;;;;;;;9.23;5.45;;;26.20;64.30;;;;;;7679079;22;80741;-66
2023/10/03 13:16:14;;;;;;;8.98;5.00;;;26.20;64.30;;;;;;7679081;22;80323;-65
2023/10/03 13:19:14;;;;;;;11.18;5.20;;;26.20;64.20;;;;;;7678821;22;81137;-66
2023/10/03 13:22:15;;;;;;;9.20;4.90;;;26.20;63.30;;;;;;7679053;22;80336;-66
2023/10/03 13:25:18;;;;;;;8.05;4.85;;;26.20;63.80;;;;;;7679786;22;80613;-63
2023/10/03 13:28:19;;;;;;;12.20;5.93;;;26.20;64.00;;;;;;7677706;22;80903;-63
2023/10/03 13:31:19;;;;;;;10.10;5.45;;;26.20;63.70;;;;;;7678622;22;80128;-63
2023/10/03 13:34:20;;;;;;;10.05;5.40;;;26.30;63.00;;;;;;7677431;22;80423;-63
2023/10/03 13:37:21;;;;;;;10.65;5.53;;;26.30;63.20;;;;;;7677787;22;80400;-62
2023/10/03 13:40:21;;;;;;;9.70;5.32;;;26.30;63.00;;;;;;7677551;22;81667;-63
2023/10/03 13:43:27;;;;;;;10.48;6.20;;;26.30;62.30;;;;;;7678410;22;80366;-62
2023/10/03 13:46:27;;;;;;;11.68;6.13;;;26.30;62.90;;;;;;7677908;22;80276;-63
2023/10/03 13:49:28;;;;;;;11.30;6.05;;;26.30;62.50;;;;;;7678064;22;80432;-62
2023/10/03 13:52:28;;;;;;;10.30;6.18;;;26.30;62.40;;;;;;7678160;22;81026;-63
2023/10/03 13:55:29;;;;;;;11.25;6.65;;;26.30;62.00;;;;;;7678111;22;80657;-63
2023/10/03 13:58:29;;;;;;;12.75;6.22;;;26.30;61.90;;;;;;7677321;22;80343;-63
2023/10/03 14:01:30;;;;;;;11.50;6.95;;;26.30;61.90;;;;;;7678491;22;80429;-65
2023/10/03 14:04:31;;;;;;;12.27;6.82;;;26.20;61.70;;;;;;7679064;22;81272;-66
2023/10/03 14:07:31;;;;;;;10.25;5.72;;;26.20;61.40;;;;;;7677239;22;80442;-71
2023/10/03 14:10:32;;;;;;;14.30;6.53;;;26.20;61.60;;;;;;7678462;22;81102;-65
2023/10/03 14:13:33;;;;;;;15.55;5.90;;;26.10;61.40;;;;;;7678927;22;80623;-66
2023/10/03 14:16:33;;;;;;;12.60;6.07;;;26.10;61.20;;;;;;7679200;22;80970;-66
2023/10/03 14:19:34;;;;;;;11.88;6.88;;;26.00;60.90;;;;;;7679146;22;80749;-71
2023/10/03 14:22:36;;;;;;;13.30;6.05;;;26.00;60.70;;;;;;7670807;22;80506;-65
2023/10/03 14:25:36;;;;;;;15.32;6.88;;;26.00;61.10;;;;;;7681872;22;80355;-70
2023/10/03 14:28:37;;;;;;;14.40;6.03;;;25.90;60.70;;;;;;7681847;22;80512;-67
2023/10/03 14:31:37;;;;;;;16.08;7.78;;;25.90;60.60;;;;;;7681485;22;80639;-69
2023/10/03 14:34:38;;;;;;;17.38;5.93;;;25.90;60.50;;;;;;7680010;22;80872;-66
2023/10/03 14:37:38;;;;;;;21.42;8.13;;;25.90;60.20;;;;;;7672530;22;81411;-67
2023/10/03 14:40:39;;;;;;;14.05;6.18;;;25.90;60.40;;;;;;7679419;22;81179;-66
2023/10/03 14:43:40;;;;;;;11.38;6.13;;;25.90;60.10;;;;;;7675633;22;80073;-69
2023/10/03 14:46:40;;;;;;;12.82;6.70;;;25.90;60.00;;;;;;7680543;22;80743;-70
2023/10/03 14:49:41;;;;;;;15.95;7.38;;;25.90;59.90;;;;;;7679676;22;80132;-69
2023/10/03 14:52:42;;;;;;;18.60;7.03;;;25.90;60.00;;;;;;7676139;22;80799;-68
2023/10/03 14:55:43;;;;;;;12.07;6.75;;;25.80;60.00;;;;;;7681064;22;80818;-52
2023/10/03 14:58:43;;;;;;;13.90;7.47;;;25.90;60.10;;;;;;7679658;22;80233;-58
2023/10/03 15:01:44;;;;;;;16.90;7.00;;;25.80;60.20;;;;;;7680403;22;81262;-57
2023/10/03 15:04:44;;;;;;;15.93;7.38;;;25.80;60.00;;;;;;7680753;22;81012;-55
2023/10/03 15:07:45;;;;;;;15.85;7.60;;;25.80;60.20;;;;;;7677530;22;80889;-56
2023/10/03 15:10:45;;;;;;;12.85;7.13;;;25.80;60.30;;;;;;7679221;22;80573;-56
2023/10/03 15:13:46;;;;;;;16.27;7.45;;;25.80;60.20;;;;;;7680665;22;80218;-58
2023/10/03 15:16:47;;;;;;;14.15;7.18;;;25.80;60.30;;;;;;7676872;22;80752;-61
2023/10/03 15:19:48;;;;;;;34.70;8.07;;;25.70;60.30;;;;;;7677030;22;80869;-60
2023/10/03 15:22:48;;;;;;;16.83;7.80;;;25.70;60.10;;;;;;7677096;22;81335;-60
2023/10/03 15:25:49;;;;;;;14.95;7.30;;;25.70;60.30;;;;;;7678372;22;81788;-62
2023/10/03 15:28:49;;;;;;;18.40;8.10;;;25.70;60.30;;;;;;7679120;22;80628;-62
2023/10/03 15:31:50;;;;;;;13.10;7.82;;;25.60;60.10;;;;;;7676420;22;80078;-58
2023/10/03 15:34:51;;;;;;;15.75;7.47;;;25.50;60.00;;;;;;7650515;22;82307;-61
2023/10/03 15:37:51;;;;;;;16.67;7.50;;;25.50;59.90;;;;;;7677487;22;79899;-60
2023/10/03 15:40:52;;;;;;;15.50;8.30;;;25.40;60.00;;;;;;7677261;22;80839;-61